MSC Musica — 3EFK6 — position and weather

sailwx.info

Track history (hours):
 
Tides and Currents Weather Stations Pressure Air Temp Water Temp Dewpoint Dewpoint Depression Visibility Wind Speed Wind Dir Waves Ship Positions

MSC Musica

Last reported at 2018-Feb-17 23:12 UTC. Time now 2018-Feb-23 07:03 UTC.
Position S 23°38' W 043°44'.

Length 294 m; draft 7.8 m.

Type: Ship. MMSI: 352003000.

Date/timePositionNaut miles runAvg speedWind from/ knotsBaromVisibWave heightAir tempDewpointWater temp
2018-Feb-17 23:12S 23°38' W 043°44'620.1
2018-Feb-17 22:53S 23°32' W 043°40'819.8
2018-Feb-17 22:30S 23°27' W 043°34'2419.6
2018-Feb-17 21:17S 23°08' W 043°18'519.9
2018-Feb-17 21:01S 23°04' W 043°14'918.5
2018-Feb-17 20:31S 22°56' W 043°08'4 7.6
2018-Feb-17 20:00S 22°54' W 043°11'0 0.1
2018-Feb-17 19:28S 22°54' W 043°11'0 0.0
2018-Feb-17 18:58S 22°54' W 043°11'0 0.0
2018-Feb-17 18:28S 22°54' W 043°11'0 0.0
2018-Feb-17 17:58S 22°54' W 043°11'0 0.0
2018-Feb-17 17:28S 22°54' W 043°11'0 0.0
2018-Feb-17 16:58S 22°54' W 043°11'0 0.0
2018-Feb-17 16:28S 22°54' W 043°11'0 0.0
2018-Feb-17 15:58S 22°54' W 043°11'0 0.0
2018-Feb-17 15:28S 22°54' W 043°11'0 0.0
2018-Feb-17 14:59S 22°54' W 043°11'0 0.0
2018-Feb-17 14:28S 22°54' W 043°11'0 0.0
2018-Feb-17 13:58S 22°54' W 043°11'0 0.0
2018-Feb-17 13:29S 22°54' W 043°11'0 0.0
2018-Feb-17 12:59S 22°54' W 043°11'0 0.0
2018-Feb-17 12:28S 22°54' W 043°11'0 0.0
2018-Feb-17 11:58S 22°54' W 043°11'0 0.0
2018-Feb-17 11:28S 22°54' W 043°11'0 0.0
2018-Feb-17 10:58S 22°54' W 043°11'0 0.0
2018-Feb-17 10:28S 22°54' W 043°11'0 0.0
2018-Feb-17 09:58S 22°54' W 043°11'0 0.0
2018-Feb-17 09:28S 22°54' W 043°11'0 0.0
2018-Feb-17 08:58S 22°54' W 043°11'0 0.0
2018-Feb-17 08:30S 22°54' W 043°11'1 2.5
2018-Feb-17 08:00S 22°53' W 043°10'5 9.3
2018-Feb-17 07:30S 22°58' W 043°08'611.8
2018-Feb-17 07:00S 23°03' W 043°05'714.4
2018-Feb-17 06:30S 23°05' W 042°58'816.4
2018-Feb-17 06:00S 23°05' W 042°49'816.1
2018-Feb-17 05:30S 23°05' W 042°40'916.3
2018-Feb-17 04:59S 23°05' W 042°31'1616.2
2018-Feb-17 03:58S 23°04' W 042°13'  
2018-Feb-11 23:08S 23°05' W 042°23'818.1
2018-Feb-11 22:42S 23°05' W 042°31'518.4
2018-Feb-11 22:25S 23°05' W 042°37'818.2
2018-Feb-11 21:59S 23°05' W 042°46'918.5
2018-Feb-11 21:30S 23°05' W 042°55'918.6
2018-Feb-11 21:00S 23°02' W 043°05'816.0
2018-Feb-11 20:30S 22°55' W 043°09'2 4.2
2018-Feb-11 19:58S 22°54' W 043°11'0 0.0
2018-Feb-11 19:28S 22°54' W 043°11'0 0.0
2018-Feb-11 18:58S 22°54' W 043°11'0 0.0
2018-Feb-11 18:28S 22°54' W 043°11'0 0.0
2018-Feb-11 17:58S 22°54' W 043°11'0 0.0
2018-Feb-11 17:28S 22°54' W 043°11'0 0.0
2018-Feb-11 17:00S 22°54' W 043°11'0 0.0
2018-Feb-11 16:30S 22°54' W 043°11'0 0.0
2018-Feb-11 16:00S 22°54' W 043°11'0 0.0
2018-Feb-11 15:30S 22°54' W 043°11'0 0.0
2018-Feb-11 15:00S 22°54' W 043°11'0 0.0
2018-Feb-11 14:30S 22°54' W 043°11'0 0.0
2018-Feb-11 13:59S 22°54' W 043°11'0 0.0
2018-Feb-11 13:29S 22°54' W 043°11'0 0.0
2018-Feb-11 12:59S 22°54' W 043°11'0 0.0
2018-Feb-11 12:29S 22°54' W 043°11'0 0.0
2018-Feb-11 11:59S 22°54' W 043°11'0 0.0
2018-Feb-11 11:29S 22°54' W 043°11'0 0.0
2018-Feb-11 10:59S 22°54' W 043°11'0 0.0
2018-Feb-11 10:29S 22°54' W 043°11'0 0.0
2018-Feb-11 09:59S 22°54' W 043°11'0 0.0
2018-Feb-11 09:29S 22°54' W 043°11'0 0.0
2018-Feb-11 09:00S 22°54' W 043°11'0 0.2
2018-Feb-11 08:30S 22°54' W 043°11'2 3.6
2018-Feb-11 08:00S 22°54' W 043°09'4 7.4
2018-Feb-11 07:30S 22°57' W 043°08'612.9
2018-Feb-11 07:00S 23°03' W 043°12'917.3
2018-Feb-11 06:30S 23°08' W 043°19'917.3
2018-Feb-11 05:59S 23°14' W 043°27'817.3
2018-Feb-11 05:30S 23°19' W 043°34'917.5
2018-Feb-11 05:00S 23°21' W 043°43'  
Track history (hours):
 
Tides and Currents Weather Stations Pressure Air Temp Water Temp Dewpoint Dewpoint Depression Visibility Wind Speed Wind Dir Waves Ship Positions

MSC Musica

Last reported at 2018-Feb-17 23:12 UTC. Time now 2018-Feb-23 07:03 UTC.
Position S 23°38' W 043°44'.

Length 294 m; draft 7.8 m.

Type: Ship. MMSI: 352003000.

Date/timePositionNaut miles runAvg speedWind from/ knotsBaromVisibWave heightAir tempDewpointWater temp
2018-Feb-17 23:12S 23°38' W 043°44'620.1
2018-Feb-17 22:53S 23°32' W 043°40'819.8
2018-Feb-17 22:30S 23°27' W 043°34'2419.6
2018-Feb-17 21:17S 23°08' W 043°18'519.9
2018-Feb-17 21:01S 23°04' W 043°14'918.5
2018-Feb-17 20:31S 22°56' W 043°08'4 7.6
2018-Feb-17 20:00S 22°54' W 043°11'0 0.1
2018-Feb-17 19:28S 22°54' W 043°11'0 0.0
2018-Feb-17 18:58S 22°54' W 043°11'0 0.0
2018-Feb-17 18:28S 22°54' W 043°11'0 0.0
2018-Feb-17 17:58S 22°54' W 043°11'0 0.0
2018-Feb-17 17:28S 22°54' W 043°11'0 0.0
2018-Feb-17 16:58S 22°54' W 043°11'0 0.0
2018-Feb-17 16:28S 22°54' W 043°11'0 0.0
2018-Feb-17 15:58S 22°54' W 043°11'0 0.0
2018-Feb-17 15:28S 22°54' W 043°11'0 0.0
2018-Feb-17 14:59S 22°54' W 043°11'0 0.0
2018-Feb-17 14:28S 22°54' W 043°11'0 0.0
2018-Feb-17 13:58S 22°54' W 043°11'0 0.0
2018-Feb-17 13:29S 22°54' W 043°11'0 0.0
2018-Feb-17 12:59S 22°54' W 043°11'0 0.0
2018-Feb-17 12:28S 22°54' W 043°11'0 0.0
2018-Feb-17 11:58S 22°54' W 043°11'0 0.0
2018-Feb-17 11:28S 22°54' W 043°11'0 0.0
2018-Feb-17 10:58S 22°54' W 043°11'0 0.0
2018-Feb-17 10:28S 22°54' W 043°11'0 0.0
2018-Feb-17 09:58S 22°54' W 043°11'0 0.0
2018-Feb-17 09:28S 22°54' W 043°11'0 0.0
2018-Feb-17 08:58S 22°54' W 043°11'0 0.0
2018-Feb-17 08:30S 22°54' W 043°11'1 2.5
2018-Feb-17 08:00S 22°53' W 043°10'5 9.3
2018-Feb-17 07:30S 22°58' W 043°08'611.8
2018-Feb-17 07:00S 23°03' W 043°05'714.4
2018-Feb-17 06:30S 23°05' W 042°58'816.4
2018-Feb-17 06:00S 23°05' W 042°49'816.1
2018-Feb-17 05:30S 23°05' W 042°40'916.3
2018-Feb-17 04:59S 23°05' W 042°31'1616.2
2018-Feb-17 03:58S 23°04' W 042°13'  
2018-Feb-11 23:08S 23°05' W 042°23'818.1
2018-Feb-11 22:42S 23°05' W 042°31'518.4
2018-Feb-11 22:25S 23°05' W 042°37'818.2
2018-Feb-11 21:59S 23°05' W 042°46'918.5
2018-Feb-11 21:30S 23°05' W 042°55'918.6
2018-Feb-11 21:00S 23°02' W 043°05'816.0
2018-Feb-11 20:30S 22°55' W 043°09'2 4.2
2018-Feb-11 19:58S 22°54' W 043°11'0 0.0
2018-Feb-11 19:28S 22°54' W 043°11'0 0.0
2018-Feb-11 18:58S 22°54' W 043°11'0 0.0
2018-Feb-11 18:28S 22°54' W 043°11'0 0.0
2018-Feb-11 17:58S 22°54' W 043°11'0 0.0
2018-Feb-11 17:28S 22°54' W 043°11'0 0.0
2018-Feb-11 17:00S 22°54' W 043°11'0 0.0
2018-Feb-11 16:30S 22°54' W 043°11'0 0.0
2018-Feb-11 16:00S 22°54' W 043°11'0 0.0
2018-Feb-11 15:30S 22°54' W 043°11'0 0.0
2018-Feb-11 15:00S 22°54' W 043°11'0 0.0
2018-Feb-11 14:30S 22°54' W 043°11'0 0.0
2018-Feb-11 13:59S 22°54' W 043°11'0 0.0
2018-Feb-11 13:29S 22°54' W 043°11'0 0.0
2018-Feb-11 12:59S 22°54' W 043°11'0 0.0
2018-Feb-11 12:29S 22°54' W 043°11'0 0.0
2018-Feb-11 11:59S 22°54' W 043°11'0 0.0
2018-Feb-11 11:29S 22°54' W 043°11'0 0.0
2018-Feb-11 10:59S 22°54' W 043°11'0 0.0
2018-Feb-11 10:29S 22°54' W 043°11'0 0.0
2018-Feb-11 09:59S 22°54' W 043°11'0 0.0
2018-Feb-11 09:29S 22°54' W 043°11'0 0.0
2018-Feb-11 09:00S 22°54' W 043°11'0 0.2
2018-Feb-11 08:30S 22°54' W 043°11'2 3.6
2018-Feb-11 08:00S 22°54' W 043°09'4 7.4
2018-Feb-11 07:30S 22°57' W 043°08'612.9
2018-Feb-11 07:00S 23°03' W 043°12'917.3
2018-Feb-11 06:30S 23°08' W 043°19'917.3
2018-Feb-11 05:59S 23°14' W 043°27'817.3
2018-Feb-11 05:30S 23°19' W 043°34'917.5
2018-Feb-11 05:00S 23°21' W 043°43'  

Dump ship's entire track history